sensor_id;sensor_type;location;lat;lon;timestamp;P1;durP1;ratioP1;P2;durP2;ratioP2
68583;SDS011;55557;49.220;11.150;2023-04-19T00:01:01;7.67;;;5.13;;
68583;SDS011;55557;49.220;11.150;2023-04-19T00:03:27;6.87;;;5.80;;
68583;SDS011;55557;49.220;11.150;2023-04-19T00:05:54;7.53;;;5.17;;
68583;SDS011;55557;49.220;11.150;2023-04-19T00:08:22;8.70;;;5.07;;
68583;SDS011;55557;49.220;11.150;2023-04-19T00:10:48;8.47;;;5.33;;
68583;SDS011;55557;49.220;11.150;2023-04-19T00:13:14;6.63;;;5.07;;
68583;SDS011;55557;49.220;11.150;2023-04-19T00:15:40;8.03;;;5.53;;
68583;SDS011;55557;49.220;11.150;2023-04-19T00:18:06;6.63;;;5.50;;
68583;SDS011;55557;49.220;11.150;2023-04-19T00:20:32;7.97;;;5.83;;
68583;SDS011;55557;49.220;11.150;2023-04-19T00:22:58;8.27;;;6.53;;
68583;SDS011;55557;49.220;11.150;2023-04-19T00:25:24;5.83;;;5.00;;
68583;SDS011;55557;49.220;11.150;2023-04-19T00:27:50;8.77;;;5.90;;
68583;SDS011;55557;49.220;11.150;2023-04-19T00:30:17;7.80;;;5.37;;
68583;SDS011;55557;49.220;11.150;2023-04-19T00:32:43;7.37;;;5.20;;
68583;SDS011;55557;49.220;11.150;2023-04-19T00:35:08;8.10;;;5.00;;
68583;SDS011;55557;49.220;11.150;2023-04-19T00:37:34;6.93;;;4.97;;
68583;SDS011;55557;49.220;11.150;2023-04-19T00:40:00;8.23;;;5.50;;
68583;SDS011;55557;49.220;11.150;2023-04-19T00:42:28;7.37;;;5.27;;
68583;SDS011;55557;49.220;11.150;2023-04-19T00:44:54;7.43;;;5.80;;
68583;SDS011;55557;49.220;11.150;2023-04-19T00:47:20;8.30;;;5.53;;
68583;SDS011;55557;49.220;11.150;2023-04-19T00:49:46;6.80;;;5.60;;
68583;SDS011;55557;49.220;11.150;2023-04-19T00:52:12;7.33;;;5.33;;
68583;SDS011;55557;49.220;11.150;2023-04-19T00:54:38;7.17;;;5.33;;
68583;SDS011;55557;49.220;11.150;2023-04-19T00:57:05;8.30;;;5.63;;
68583;SDS011;55557;49.220;11.150;2023-04-19T00:59:31;9.43;;;5.73;;
68583;SDS011;55557;49.220;11.150;2023-04-19T01:01:58;7.37;;;5.53;;
68583;SDS011;55557;49.220;11.150;2023-04-19T01:04:24;10.27;;;5.53;;
68583;SDS011;55557;49.220;11.150;2023-04-19T01:06:50;6.97;;;5.40;;
68583;SDS011;55557;49.220;11.150;2023-04-19T01:09:16;8.63;;;5.80;;
68583;SDS011;55557;49.220;11.150;2023-04-19T01:11:42;5.83;;;4.87;;
68583;SDS011;55557;49.220;11.150;2023-04-19T01:14:08;6.67;;;5.23;;
68583;SDS011;55557;49.220;11.150;2023-04-19T01:16:34;8.57;;;5.87;;
68583;SDS011;55557;49.220;11.150;2023-04-19T01:19:00;6.97;;;4.87;;
68583;SDS011;55557;49.220;11.150;2023-04-19T01:21:26;8.00;;;5.33;;
68583;SDS011;55557;49.220;11.150;2023-04-19T01:23:54;8.67;;;5.27;;
68583;SDS011;55557;49.220;11.150;2023-04-19T01:26:20;8.50;;;5.63;;
68583;SDS011;55557;49.220;11.150;2023-04-19T01:28:46;5.80;;;5.17;;
68583;SDS011;55557;49.220;11.150;2023-04-19T01:31:12;7.50;;;5.20;;
68583;SDS011;55557;49.220;11.150;2023-04-19T01:33:38;7.03;;;4.80;;
68583;SDS011;55557;49.220;11.150;2023-04-19T01:36:04;8.03;;;5.40;;
68583;SDS011;55557;49.220;11.150;2023-04-19T01:38:30;9.13;;;5.37;;
68583;SDS011;55557;49.220;11.150;2023-04-19T01:40:56;7.27;;;5.50;;
68583;SDS011;55557;49.220;11.150;2023-04-19T01:43:22;7.20;;;5.20;;
68583;SDS011;55557;49.220;11.150;2023-04-19T01:45:48;5.93;;;4.63;;
68583;SDS011;55557;49.220;11.150;2023-04-19T01:48:14;7.60;;;5.60;;
68583;SDS011;55557;49.220;11.150;2023-04-19T01:50:40;6.40;;;4.97;;
68583;SDS011;55557;49.220;11.150;2023-04-19T01:53:06;7.93;;;5.53;;
68583;SDS011;55557;49.220;11.150;2023-04-19T01:55:32;6.00;;;4.87;;
68583;SDS011;55557;49.220;11.150;2023-04-19T01:57:59;6.60;;;4.87;;
68583;SDS011;55557;49.220;11.150;2023-04-19T02:00:25;6.57;;;4.57;;
68583;SDS011;55557;49.220;11.150;2023-04-19T02:02:51;7.83;;;4.80;;
68583;SDS011;55557;49.220;11.150;2023-04-19T02:05:16;8.07;;;5.13;;
68583;SDS011;55557;49.220;11.150;2023-04-19T02:07:42;7.20;;;4.80;;
68583;SDS011;55557;49.220;11.150;2023-04-19T02:10:09;6.53;;;4.97;;
68583;SDS011;55557;49.220;11.150;2023-04-19T02:12:35;7.87;;;5.13;;
68583;SDS011;55557;49.220;11.150;2023-04-19T02:15:01;8.63;;;6.10;;
68583;SDS011;55557;49.220;11.150;2023-04-19T02:17:27;8.57;;;6.03;;
68583;SDS011;55557;49.220;11.150;2023-04-19T02:19:54;7.17;;;5.63;;
68583;SDS011;55557;49.220;11.150;2023-04-19T02:22:20;8.43;;;5.53;;
68583;SDS011;55557;49.220;11.150;2023-04-19T02:24:49;7.20;;;5.43;;
68583;SDS011;55557;49.220;11.150;2023-04-19T02:27:15;7.33;;;5.47;;
68583;SDS011;55557;49.220;11.150;2023-04-19T02:29:41;5.83;;;4.53;;
68583;SDS011;55557;49.220;11.150;2023-04-19T02:32:08;6.97;;;5.13;;
68583;SDS011;55557;49.220;11.150;2023-04-19T02:34:34;7.10;;;5.40;;
68583;SDS011;55557;49.220;11.150;2023-04-19T02:37:00;7.03;;;5.40;;
68583;SDS011;55557;49.220;11.150;2023-04-19T02:39:27;13.03;;;5.83;;
68583;SDS011;55557;49.220;11.150;2023-04-19T02:41:54;8.47;;;6.30;;
68583;SDS011;55557;49.220;11.150;2023-04-19T02:44:20;8.67;;;5.83;;
68583;SDS011;55557;49.220;11.150;2023-04-19T02:46:49;6.67;;;5.73;;
68583;SDS011;55557;49.220;11.150;2023-04-19T02:49:16;9.47;;;6.70;;
68583;SDS011;55557;49.220;11.150;2023-04-19T02:51:42;7.00;;;5.40;;
68583;SDS011;55557;49.220;11.150;2023-04-19T02:54:08;10.97;;;6.30;;
68583;SDS011;55557;49.220;11.150;2023-04-19T02:56:34;8.10;;;5.37;;
68583;SDS011;55557;49.220;11.150;2023-04-19T02:59:00;8.73;;;5.90;;
68583;SDS011;55557;49.220;11.150;2023-04-19T03:01:26;7.07;;;6.27;;
68583;SDS011;55557;49.220;11.150;2023-04-19T03:03:52;8.47;;;5.80;;
68583;SDS011;55557;49.220;11.150;2023-04-19T03:06:18;8.13;;;5.67;;
68583;SDS011;55557;49.220;11.150;2023-04-19T03:08:44;8.63;;;6.23;;
68583;SDS011;55557;49.220;11.150;2023-04-19T03:11:11;10.07;;;6.00;;
68583;SDS011;55557;49.220;11.150;2023-04-19T03:13:37;8.03;;;5.97;;
68583;SDS011;55557;49.220;11.150;2023-04-19T03:16:04;7.37;;;5.87;;
68583;SDS011;55557;49.220;11.150;2023-04-19T03:18:30;8.87;;;5.97;;
68583;SDS011;55557;49.220;11.150;2023-04-19T03:20:56;8.30;;;6.03;;
68583;SDS011;55557;49.220;11.150;2023-04-19T03:23:22;8.63;;;5.70;;
68583;SDS011;55557;49.220;11.150;2023-04-19T03:25:48;8.17;;;5.80;;
68583;SDS011;55557;49.220;11.150;2023-04-19T03:28:15;7.23;;;5.63;;
68583;SDS011;55557;49.220;11.150;2023-04-19T03:30:41;9.43;;;6.77;;
68583;SDS011;55557;49.220;11.150;2023-04-19T03:33:07;10.93;;;6.60;;
68583;SDS011;55557;49.220;11.150;2023-04-19T03:35:33;10.03;;;6.30;;
68583;SDS011;55557;49.220;11.150;2023-04-19T03:37:59;8.90;;;6.50;;
68583;SDS011;55557;49.220;11.150;2023-04-19T03:40:25;9.57;;;6.47;;
68583;SDS011;55557;49.220;11.150;2023-04-19T03:42:51;10.37;;;6.10;;
68583;SDS011;55557;49.220;11.150;2023-04-19T03:45:17;9.97;;;6.43;;
68583;SDS011;55557;49.220;11.150;2023-04-19T03:47:43;11.37;;;7.43;;
68583;SDS011;55557;49.220;11.150;2023-04-19T03:50:09;8.23;;;6.00;;
68583;SDS011;55557;49.220;11.150;2023-04-19T03:52:35;9.87;;;6.60;;
68583;SDS011;55557;49.220;11.150;2023-04-19T03:55:01;9.87;;;7.13;;
68583;SDS011;55557;49.220;11.150;2023-04-19T03:57:27;10.27;;;6.70;;
68583;SDS011;55557;49.220;11.150;2023-04-19T03:59:53;10.97;;;6.80;;
68583;SDS011;55557;49.220;11.150;2023-04-19T04:02:19;12.17;;;7.60;;
68583;SDS011;55557;49.220;11.150;2023-04-19T04:04:45;11.20;;;7.50;;
68583;SDS011;55557;49.220;11.150;2023-04-19T04:07:11;10.87;;;7.40;;
68583;SDS011;55557;49.220;11.150;2023-04-19T04:09:37;14.60;;;7.80;;
68583;SDS011;55557;49.220;11.150;2023-04-19T04:12:03;9.93;;;7.33;;
68583;SDS011;55557;49.220;11.150;2023-04-19T04:14:29;11.33;;;7.90;;
68583;SDS011;55557;49.220;11.150;2023-04-19T04:16:55;11.27;;;7.73;;
68583;SDS011;55557;49.220;11.150;2023-04-19T04:19:21;11.87;;;7.73;;
68583;SDS011;55557;49.220;11.150;2023-04-19T04:21:50;11.33;;;7.00;;
68583;SDS011;55557;49.220;11.150;2023-04-19T04:24:16;13.17;;;8.40;;
68583;SDS011;55557;49.220;11.150;2023-04-19T04:26:44;14.23;;;7.87;;
68583;SDS011;55557;49.220;11.150;2023-04-19T04:29:10;9.93;;;7.10;;
68583;SDS011;55557;49.220;11.150;2023-04-19T04:31:36;12.33;;;7.50;;
68583;SDS011;55557;49.220;11.150;2023-04-19T04:34:02;8.93;;;6.40;;
68583;SDS011;55557;49.220;11.150;2023-04-19T04:36:28;11.27;;;7.40;;
68583;SDS011;55557;49.220;11.150;2023-04-19T04:38:55;13.53;;;7.30;;
68583;SDS011;55557;49.220;11.150;2023-04-19T04:41:21;10.37;;;7.33;;
68583;SDS011;55557;49.220;11.150;2023-04-19T04:43:47;12.20;;;7.30;;
68583;SDS011;55557;49.220;11.150;2023-04-19T04:46:15;13.80;;;8.27;;
68583;SDS011;55557;49.220;11.150;2023-04-19T04:48:42;12.10;;;7.97;;
68583;SDS011;55557;49.220;11.150;2023-04-19T04:51:08;11.47;;;7.20;;
68583;SDS011;55557;49.220;11.150;2023-04-19T04:53:34;14.10;;;8.40;;
68583;SDS011;55557;49.220;11.150;2023-04-19T04:56:00;12.50;;;8.10;;
68583;SDS011;55557;49.220;11.150;2023-04-19T04:58:26;11.90;;;7.97;;
68583;SDS011;55557;49.220;11.150;2023-04-19T05:00:52;12.33;;;7.73;;
68583;SDS011;55557;49.220;11.150;2023-04-19T05:03:18;10.50;;;7.50;;
68583;SDS011;55557;49.220;11.150;2023-04-19T05:05:44;13.10;;;7.70;;
68583;SDS011;55557;49.220;11.150;2023-04-19T05:08:10;12.73;;;7.10;;
68583;SDS011;55557;49.220;11.150;2023-04-19T05:10:37;12.07;;;7.80;;
68583;SDS011;55557;49.220;11.150;2023-04-19T05:13:03;10.83;;;7.27;;
68583;SDS011;55557;49.220;11.150;2023-04-19T05:15:29;11.50;;;8.10;;
68583;SDS011;55557;49.220;11.150;2023-04-19T05:17:55;13.23;;;8.20;;
68583;SDS011;55557;49.220;11.150;2023-04-19T05:20:22;11.27;;;7.80;;
68583;SDS011;55557;49.220;11.150;2023-04-19T05:22:48;15.80;;;7.93;;
68583;SDS011;55557;49.220;11.150;2023-04-19T05:25:16;12.33;;;8.07;;
68583;SDS011;55557;49.220;11.150;2023-04-19T05:27:46;11.67;;;7.17;;
68583;SDS011;55557;49.220;11.150;2023-04-19T05:30:12;15.63;;;8.37;;
68583;SDS011;55557;49.220;11.150;2023-04-19T05:32:38;13.40;;;8.90;;
68583;SDS011;55557;49.220;11.150;2023-04-19T05:35:04;13.47;;;7.50;;
68583;SDS011;55557;49.220;11.150;2023-04-19T05:37:30;11.87;;;8.43;;
68583;SDS011;55557;49.220;11.150;2023-04-19T05:39:56;13.37;;;8.40;;
68583;SDS011;55557;49.220;11.150;2023-04-19T05:42:23;14.17;;;8.70;;
68583;SDS011;55557;49.220;11.150;2023-04-19T05:44:51;14.83;;;8.47;;
68583;SDS011;55557;49.220;11.150;2023-04-19T05:47:17;14.00;;;8.57;;
68583;SDS011;55557;49.220;11.150;2023-04-19T05:49:57;14.47;;;8.83;;
68583;SDS011;55557;49.220;11.150;2023-04-19T05:52:36;17.20;;;8.97;;
68583;SDS011;55557;49.220;11.150;2023-04-19T05:55:04;15.00;;;8.80;;
68583;SDS011;55557;49.220;11.150;2023-04-19T05:57:30;12.37;;;7.97;;
68583;SDS011;55557;49.220;11.150;2023-04-19T05:59:56;12.70;;;8.27;;
68583;SDS011;55557;49.220;11.150;2023-04-19T06:02:22;12.93;;;8.43;;
68583;SDS011;55557;49.220;11.150;2023-04-19T06:04:48;13.63;;;7.97;;
68583;SDS011;55557;49.220;11.150;2023-04-19T06:07:16;13.27;;;8.63;;
68583;SDS011;55557;49.220;11.150;2023-04-19T06:09:42;14.27;;;7.93;;
68583;SDS011;55557;49.220;11.150;2023-04-19T06:12:09;15.20;;;7.63;;
68583;SDS011;55557;49.220;11.150;2023-04-19T06:14:35;11.37;;;7.80;;
68583;SDS011;55557;49.220;11.150;2023-04-19T06:17:01;12.83;;;8.33;;
68583;SDS011;55557;49.220;11.150;2023-04-19T06:19:27;20.73;;;8.70;;
68583;SDS011;55557;49.220;11.150;2023-04-19T06:21:53;12.40;;;7.83;;
68583;SDS011;55557;49.220;11.150;2023-04-19T06:24:19;13.90;;;8.17;;
68583;SDS011;55557;49.220;11.150;2023-04-19T06:26:45;13.37;;;8.07;;
68583;SDS011;55557;49.220;11.150;2023-04-19T06:29:12;13.90;;;8.80;;
68583;SDS011;55557;49.220;11.150;2023-04-19T06:31:38;13.17;;;8.20;;
68583;SDS011;55557;49.220;11.150;2023-04-19T06:34:04;18.37;;;8.87;;
68583;SDS011;55557;49.220;11.150;2023-04-19T06:36:31;14.63;;;8.97;;
68583;SDS011;55557;49.220;11.150;2023-04-19T06:38:57;14.67;;;9.07;;
68583;SDS011;55557;49.220;11.150;2023-04-19T06:41:23;13.80;;;8.63;;
68583;SDS011;55557;49.220;11.150;2023-04-19T06:43:50;11.77;;;7.90;;
68583;SDS011;55557;49.220;11.150;2023-04-19T06:46:16;14.20;;;8.20;;
68583;SDS011;55557;49.220;11.150;2023-04-19T06:48:42;14.00;;;8.93;;
68583;SDS011;55557;49.220;11.150;2023-04-19T06:51:08;14.87;;;8.33;;
68583;SDS011;55557;49.220;11.150;2023-04-19T06:53:34;12.53;;;8.20;;
68583;SDS011;55557;49.220;11.150;2023-04-19T06:56:01;13.80;;;8.40;;
68583;SDS011;55557;49.220;11.150;2023-04-19T06:58:28;14.17;;;9.20;;
68583;SDS011;55557;49.220;11.150;2023-04-19T07:00:54;12.37;;;8.70;;
68583;SDS011;55557;49.220;11.150;2023-04-19T07:03:21;14.60;;;8.80;;
68583;SDS011;55557;49.220;11.150;2023-04-19T07:05:47;14.87;;;8.33;;
68583;SDS011;55557;49.220;11.150;2023-04-19T07:08:13;13.30;;;8.33;;
68583;SDS011;55557;49.220;11.150;2023-04-19T07:10:39;14.77;;;8.80;;
68583;SDS011;55557;49.220;11.150;2023-04-19T07:13:07;11.33;;;8.20;;
68583;SDS011;55557;49.220;11.150;2023-04-19T07:15:33;12.10;;;8.37;;
68583;SDS011;55557;49.220;11.150;2023-04-19T07:18:00;13.53;;;8.93;;
68583;SDS011;55557;49.220;11.150;2023-04-19T07:20:26;13.87;;;8.43;;
68583;SDS011;55557;49.220;11.150;2023-04-19T07:22:52;17.63;;;10.10;;
68583;SDS011;55557;49.220;11.150;2023-04-19T07:25:18;11.57;;;8.20;;
68583;SDS011;55557;49.220;11.150;2023-04-19T07:27:44;16.67;;;9.77;;
68583;SDS011;55557;49.220;11.150;2023-04-19T07:30:10;10.83;;;7.80;;
68583;SDS011;55557;49.220;11.150;2023-04-19T07:32:36;14.50;;;8.87;;
68583;SDS011;55557;49.220;11.150;2023-04-19T07:35:02;15.50;;;8.33;;
68583;SDS011;55557;49.220;11.150;2023-04-19T07:37:28;12.20;;;7.90;;
68583;SDS011;55557;49.220;11.150;2023-04-19T07:39:54;15.80;;;9.10;;
68583;SDS011;55557;49.220;11.150;2023-04-19T07:42:20;14.60;;;8.60;;
68583;SDS011;55557;49.220;11.150;2023-04-19T07:44:46;14.70;;;9.37;;
68583;SDS011;55557;49.220;11.150;2023-04-19T07:47:12;14.97;;;9.37;;
68583;SDS011;55557;49.220;11.150;2023-04-19T07:49:38;14.00;;;8.53;;
68583;SDS011;55557;49.220;11.150;2023-04-19T07:52:07;13.67;;;9.03;;
68583;SDS011;55557;49.220;11.150;2023-04-19T07:54:33;12.73;;;8.77;;
68583;SDS011;55557;49.220;11.150;2023-04-19T07:57:00;14.60;;;8.97;;
68583;SDS011;55557;49.220;11.150;2023-04-19T07:59:26;15.00;;;9.90;;
68583;SDS011;55557;49.220;11.150;2023-04-19T08:01:52;16.63;;;8.90;;
68583;SDS011;55557;49.220;11.150;2023-04-19T08:04:18;14.97;;;9.53;;
68583;SDS011;55557;49.220;11.150;2023-04-19T08:06:44;13.30;;;8.80;;
68583;SDS011;55557;49.220;11.150;2023-04-19T08:09:10;15.53;;;9.37;;
68583;SDS011;55557;49.220;11.150;2023-04-19T08:11:36;12.70;;;8.33;;
68583;SDS011;55557;49.220;11.150;2023-04-19T08:14:02;17.43;;;8.97;;
68583;SDS011;55557;49.220;11.150;2023-04-19T08:16:28;13.50;;;9.67;;
68583;SDS011;55557;49.220;11.150;2023-04-19T08:18:54;14.77;;;9.93;;
68583;SDS011;55557;49.220;11.150;2023-04-19T08:21:20;18.07;;;11.03;;
68583;SDS011;55557;49.220;11.150;2023-04-19T08:23:46;18.10;;;10.60;;
68583;SDS011;55557;49.220;11.150;2023-04-19T08:26:12;17.47;;;10.77;;
68583;SDS011;55557;49.220;11.150;2023-04-19T08:28:38;13.63;;;9.60;;
68583;SDS011;55557;49.220;11.150;2023-04-19T08:31:05;16.17;;;10.43;;
68583;SDS011;55557;49.220;11.150;2023-04-19T08:33:34;16.93;;;10.50;;
68583;SDS011;55557;49.220;11.150;2023-04-19T08:36:00;16.57;;;10.27;;
68583;SDS011;55557;49.220;11.150;2023-04-19T08:38:26;21.30;;;11.90;;
68583;SDS011;55557;49.220;11.150;2023-04-19T08:40:53;18.37;;;11.43;;
68583;SDS011;55557;49.220;11.150;2023-04-19T08:43:19;17.20;;;11.40;;
68583;SDS011;55557;49.220;11.150;2023-04-19T08:45:49;18.17;;;12.07;;
68583;SDS011;55557;49.220;11.150;2023-04-19T08:48:15;20.23;;;11.47;;
68583;SDS011;55557;49.220;11.150;2023-04-19T08:50:42;20.43;;;11.53;;
68583;SDS011;55557;49.220;11.150;2023-04-19T08:53:10;20.57;;;12.07;;
68583;SDS011;55557;49.220;11.150;2023-04-19T08:55:39;22.33;;;13.73;;
68583;SDS011;55557;49.220;11.150;2023-04-19T08:58:05;20.00;;;11.73;;
68583;SDS011;55557;49.220;11.150;2023-04-19T09:00:32;18.70;;;11.90;;
68583;SDS011;55557;49.220;11.150;2023-04-19T09:02:58;24.40;;;11.57;;
68583;SDS011;55557;49.220;11.150;2023-04-19T09:05:24;21.83;;;12.13;;
68583;SDS011;55557;49.220;11.150;2023-04-19T09:07:50;18.67;;;11.53;;
68583;SDS011;55557;49.220;11.150;2023-04-19T09:10:18;16.00;;;10.53;;
68583;SDS011;55557;49.220;11.150;2023-04-19T09:15:38;19.90;;;12.83;;
68583;SDS011;55557;49.220;11.150;2023-04-19T09:18:08;20.53;;;12.33;;
68583;SDS011;55557;49.220;11.150;2023-04-19T09:20:38;22.93;;;12.53;;
68583;SDS011;55557;49.220;11.150;2023-04-19T09:23:05;24.63;;;12.50;;
68583;SDS011;55557;49.220;11.150;2023-04-19T09:25:32;20.57;;;12.53;;
68583;SDS011;55557;49.220;11.150;2023-04-19T09:28:10;19.57;;;12.00;;
68583;SDS011;55557;49.220;11.150;2023-04-19T09:30:37;20.53;;;12.17;;
68583;SDS011;55557;49.220;11.150;2023-04-19T09:33:03;19.33;;;12.23;;
68583;SDS011;55557;49.220;11.150;2023-04-19T09:35:39;22.23;;;12.10;;
68583;SDS011;55557;49.220;11.150;2023-04-19T09:38:05;21.57;;;12.40;;
68583;SDS011;55557;49.220;11.150;2023-04-19T09:40:31;20.63;;;12.13;;
68583;SDS011;55557;49.220;11.150;2023-04-19T09:42:57;20.83;;;12.97;;
68583;SDS011;55557;49.220;11.150;2023-04-19T09:45:23;19.87;;;11.87;;
68583;SDS011;55557;49.220;11.150;2023-04-19T09:48:02;24.63;;;12.97;;
68583;SDS011;55557;49.220;11.150;2023-04-19T09:50:29;24.67;;;13.37;;
68583;SDS011;55557;49.220;11.150;2023-04-19T09:52:55;20.83;;;13.17;;
68583;SDS011;55557;49.220;11.150;2023-04-19T09:55:22;22.93;;;13.73;;
68583;SDS011;55557;49.220;11.150;2023-04-19T09:57:48;25.53;;;14.37;;
68583;SDS011;55557;49.220;11.150;2023-04-19T10:00:15;23.63;;;14.40;;
68583;SDS011;55557;49.220;11.150;2023-04-19T10:02:41;23.87;;;13.73;;
68583;SDS011;55557;49.220;11.150;2023-04-19T10:05:08;22.67;;;13.27;;
68583;SDS011;55557;49.220;11.150;2023-04-19T10:07:34;23.07;;;13.60;;
68583;SDS011;55557;49.220;11.150;2023-04-19T10:10:01;20.00;;;13.43;;
68583;SDS011;55557;49.220;11.150;2023-04-19T10:12:28;22.93;;;13.63;;
68583;SDS011;55557;49.220;11.150;2023-04-19T10:14:56;21.20;;;12.63;;
68583;SDS011;55557;49.220;11.150;2023-04-19T10:17:22;20.50;;;13.07;;
68583;SDS011;55557;49.220;11.150;2023-04-19T10:19:54;18.37;;;12.93;;
68583;SDS011;55557;49.220;11.150;2023-04-19T10:22:21;22.73;;;13.67;;
68583;SDS011;55557;49.220;11.150;2023-04-19T10:25:06;18.97;;;12.10;;
68583;SDS011;55557;49.220;11.150;2023-04-19T10:27:33;18.97;;;12.57;;
68583;SDS011;55557;49.220;11.150;2023-04-19T10:30:00;18.37;;;11.90;;
68583;SDS011;55557;49.220;11.150;2023-04-19T10:32:38;17.53;;;12.40;;
68583;SDS011;55557;49.220;11.150;2023-04-19T10:43:34;19.13;;;11.70;;
68583;SDS011;55557;49.220;11.150;2023-04-19T10:46:02;17.47;;;12.13;;
68583;SDS011;55557;49.220;11.150;2023-04-19T10:48:31;16.63;;;11.47;;
68583;SDS011;55557;49.220;11.150;2023-04-19T10:53:46;17.87;;;10.47;;
68583;SDS011;55557;49.220;11.150;2023-04-19T10:56:13;14.63;;;10.03;;
68583;SDS011;55557;49.220;11.150;2023-04-19T11:04:01;12.97;;;8.83;;
68583;SDS011;55557;49.220;11.150;2023-04-19T11:06:26;14.27;;;9.87;;
68583;SDS011;55557;49.220;11.150;2023-04-19T11:08:53;13.27;;;8.60;;
68583;SDS011;55557;49.220;11.150;2023-04-19T11:11:19;11.73;;;8.37;;
68583;SDS011;55557;49.220;11.150;2023-04-19T11:13:48;13.77;;;8.77;;
68583;SDS011;55557;49.220;11.150;2023-04-19T11:16:14;12.83;;;7.77;;
68583;SDS011;55557;49.220;11.150;2023-04-19T11:18:41;13.43;;;8.17;;
68583;SDS011;55557;49.220;11.150;2023-04-19T11:21:06;11.63;;;7.70;;
68583;SDS011;55557;49.220;11.150;2023-04-19T11:23:38;13.90;;;7.53;;
68583;SDS011;55557;49.220;11.150;2023-04-19T11:26:04;11.53;;;7.70;;
68583;SDS011;55557;49.220;11.150;2023-04-19T11:28:32;11.13;;;7.23;;
68583;SDS011;55557;49.220;11.150;2023-04-19T11:30:58;10.23;;;6.60;;
68583;SDS011;55557;49.220;11.150;2023-04-19T11:33:24;10.90;;;6.33;;
68583;SDS011;55557;49.220;11.150;2023-04-19T11:35:51;11.57;;;7.03;;
68583;SDS011;55557;49.220;11.150;2023-04-19T11:38:17;9.60;;;6.53;;
68583;SDS011;55557;49.220;11.150;2023-04-19T11:40:43;12.00;;;7.07;;
68583;SDS011;55557;49.220;11.150;2023-04-19T11:43:09;10.10;;;5.97;;
68583;SDS011;55557;49.220;11.150;2023-04-19T11:45:35;6.97;;;4.80;;
68583;SDS011;55557;49.220;11.150;2023-04-19T11:48:06;8.40;;;5.20;;
68583;SDS011;55557;49.220;11.150;2023-04-19T11:50:33;7.90;;;5.17;;
68583;SDS011;55557;49.220;11.150;2023-04-19T11:53:08;9.57;;;5.03;;
68583;SDS011;55557;49.220;11.150;2023-04-19T11:55:34;5.43;;;4.37;;
68583;SDS011;55557;49.220;11.150;2023-04-19T11:58:00;6.90;;;4.77;;
68583;SDS011;55557;49.220;11.150;2023-04-19T12:00:27;6.80;;;3.97;;
68583;SDS011;55557;49.220;11.150;2023-04-19T12:02:53;6.60;;;4.97;;
68583;SDS011;55557;49.220;11.150;2023-04-19T12:05:19;5.90;;;4.40;;
68583;SDS011;55557;49.220;11.150;2023-04-19T12:08:04;6.30;;;4.43;;
68583;SDS011;55557;49.220;11.150;2023-04-19T12:10:33;6.93;;;4.10;;
68583;SDS011;55557;49.220;11.150;2023-04-19T12:13:00;7.03;;;4.03;;
68583;SDS011;55557;49.220;11.150;2023-04-19T12:15:42;6.43;;;4.37;;
68583;SDS011;55557;49.220;11.150;2023-04-19T12:18:08;6.83;;;4.33;;
68583;SDS011;55557;49.220;11.150;2023-04-19T12:20:35;5.93;;;4.00;;
68583;SDS011;55557;49.220;11.150;2023-04-19T12:23:01;6.03;;;3.73;;
68583;SDS011;55557;49.220;11.150;2023-04-19T12:25:30;7.07;;;4.03;;
68583;SDS011;55557;49.220;11.150;2023-04-19T12:27:57;4.50;;;3.50;;
68583;SDS011;55557;49.220;11.150;2023-04-19T12:30:23;4.80;;;3.60;;
68583;SDS011;55557;49.220;11.150;2023-04-19T12:32:50;4.50;;;3.40;;
68583;SDS011;55557;49.220;11.150;2023-04-19T12:35:19;6.67;;;3.27;;
68583;SDS011;55557;49.220;11.150;2023-04-19T12:37:45;5.37;;;3.77;;
68583;SDS011;55557;49.220;11.150;2023-04-19T12:40:11;5.03;;;3.37;;
68583;SDS011;55557;49.220;11.150;2023-04-19T12:42:37;6.10;;;3.17;;
68583;SDS011;55557;49.220;11.150;2023-04-19T12:45:04;5.07;;;3.20;;
68583;SDS011;55557;49.220;11.150;2023-04-19T12:47:30;4.10;;;3.10;;
68583;SDS011;55557;49.220;11.150;2023-04-19T12:49:56;5.00;;;2.70;;
68583;SDS011;55557;49.220;11.150;2023-04-19T12:52:22;2.87;;;2.50;;
68583;SDS011;55557;49.220;11.150;2023-04-19T12:54:48;3.30;;;3.00;;
68583;SDS011;55557;49.220;11.150;2023-04-19T12:57:14;7.93;;;3.93;;
68583;SDS011;55557;49.220;11.150;2023-04-19T12:59:40;2.97;;;2.53;;
68583;SDS011;55557;49.220;11.150;2023-04-19T13:02:06;7.00;;;2.57;;
68583;SDS011;55557;49.220;11.150;2023-04-19T13:04:32;5.00;;;2.93;;
68583;SDS011;55557;49.220;11.150;2023-04-19T13:06:58;3.63;;;2.60;;
68583;SDS011;55557;49.220;11.150;2023-04-19T13:09:26;5.43;;;3.03;;
68583;SDS011;55557;49.220;11.150;2023-04-19T13:11:55;2.43;;;2.00;;
68583;SDS011;55557;49.220;11.150;2023-04-19T13:14:21;2.80;;;2.47;;
68583;SDS011;55557;49.220;11.150;2023-04-19T13:16:47;3.07;;;2.23;;
68583;SDS011;55557;49.220;11.150;2023-04-19T13:19:13;6.00;;;3.17;;
68583;SDS011;55557;49.220;11.150;2023-04-19T13:21:40;2.63;;;2.23;;
68583;SDS011;55557;49.220;11.150;2023-04-19T13:24:06;2.30;;;1.73;;
68583;SDS011;55557;49.220;11.150;2023-04-19T13:26:32;2.23;;;1.73;;
68583;SDS011;55557;49.220;11.150;2023-04-19T13:28:58;3.17;;;2.23;;
68583;SDS011;55557;49.220;11.150;2023-04-19T13:31:25;2.23;;;1.80;;
68583;SDS011;55557;49.220;11.150;2023-04-19T13:33:51;2.60;;;1.70;;
68583;SDS011;55557;49.220;11.150;2023-04-19T13:36:18;2.30;;;1.70;;
68583;SDS011;55557;49.220;11.150;2023-04-19T13:38:44;1.83;;;1.50;;
68583;SDS011;55557;49.220;11.150;2023-04-19T13:41:10;1.63;;;1.33;;
68583;SDS011;55557;49.220;11.150;2023-04-19T13:43:36;2.00;;;1.63;;
68583;SDS011;55557;49.220;11.150;2023-04-19T13:46:02;2.10;;;1.33;;
68583;SDS011;55557;49.220;11.150;2023-04-19T13:48:28;3.93;;;1.30;;
68583;SDS011;55557;49.220;11.150;2023-04-19T13:50:55;1.83;;;1.30;;
68583;SDS011;55557;49.220;11.150;2023-04-19T13:53:21;1.30;;;1.03;;
68583;SDS011;55557;49.220;11.150;2023-04-19T13:55:47;2.37;;;1.40;;
68583;SDS011;55557;49.220;11.150;2023-04-19T13:58:13;1.93;;;1.50;;
68583;SDS011;55557;49.220;11.150;2023-04-19T14:00:40;1.10;;;1.00;;
68583;SDS011;55557;49.220;11.150;2023-04-19T14:03:06;1.87;;;1.20;;
68583;SDS011;55557;49.220;11.150;2023-04-19T14:05:32;2.53;;;1.27;;
68583;SDS011;55557;49.220;11.150;2023-04-19T14:07:58;2.23;;;1.33;;
68583;SDS011;55557;49.220;11.150;2023-04-19T14:10:24;1.33;;;1.13;;
68583;SDS011;55557;49.220;11.150;2023-04-19T14:12:50;1.17;;;1.07;;
68583;SDS011;55557;49.220;11.150;2023-04-19T14:15:17;2.90;;;1.10;;
68583;SDS011;55557;49.220;11.150;2023-04-19T14:17:44;4.53;;;1.10;;
68583;SDS011;55557;49.220;11.150;2023-04-19T14:20:10;2.97;;;1.30;;
68583;SDS011;55557;49.220;11.150;2023-04-19T14:22:36;1.03;;;0.87;;
68583;SDS011;55557;49.220;11.150;2023-04-19T14:25:02;2.17;;;1.27;;
68583;SDS011;55557;49.220;11.150;2023-04-19T14:27:29;3.17;;;1.20;;
68583;SDS011;55557;49.220;11.150;2023-04-19T14:29:55;2.47;;;1.03;;
68583;SDS011;55557;49.220;11.150;2023-04-19T14:32:21;2.57;;;1.10;;
68583;SDS011;55557;49.220;11.150;2023-04-19T14:34:47;4.43;;;1.23;;
68583;SDS011;55557;49.220;11.150;2023-04-19T14:37:13;2.43;;;1.17;;
68583;SDS011;55557;49.220;11.150;2023-04-19T14:39:39;1.37;;;1.27;;
68583;SDS011;55557;49.220;11.150;2023-04-19T14:42:05;1.67;;;1.20;;